Time;durP1;ratioP1;P1;durP2;ratioP2;P2;SDS_P1;SDS_P2;PMS_P1;PMS_P2;Temp;Humidity;BMP_temperature;BMP_pressure;BME280_temperature;BME280_humidity;BME280_pressure;Samples;Min_cycle;Max_cycle;Signal;HPM_P1;HPM_P2
2022/08/11 00:00:19;;;;;;;6.25;3.10;;;19.60;92.60;;;;;;5056396;28;20080;-50
2022/08/11 00:02:47;;;;;;;4.38;3.00;;;19.60;92.60;;;;;;5069186;28;20140;-52
2022/08/11 00:05:15;;;;;;;5.00;3.63;;;19.60;92.70;;;;;;5068263;28;20479;-53
2022/08/11 00:07:43;;;;;;;4.90;3.50;;;19.60;93.10;;;;;;5087640;28;20127;-46
2022/08/11 00:10:11;;;;;;;8.55;3.92;;;19.40;93.40;;;;;;5070538;28;20136;-48
2022/08/11 00:12:40;;;;;;;4.05;2.95;;;19.50;93.40;;;;;;5067854;28;20076;-50
2022/08/11 00:15:08;;;;;;;4.78;2.60;;;19.50;93.20;;;;;;5055431;28;20532;-50
2022/08/11 00:17:34;;;;;;;3.72;3.10;;;19.50;93.00;;;;;;5061979;28;20484;-51
2022/08/11 00:20:04;;;;;;;5.55;3.78;;;19.40;93.00;;;;;;5072063;28;20098;-50
2022/08/11 00:22:31;;;;;;;4.55;3.30;;;19.40;93.50;;;;;;5067591;28;20045;-50
2022/08/11 00:24:59;;;;;;;9.70;3.33;;;19.40;93.70;;;;;;5058994;28;20070;-47
2022/08/11 00:27:32;;;;;;;3.78;3.00;;;19.30;93.60;;;;;;5066516;28;20055;-47
2022/08/11 00:30:00;;;;;;;6.15;3.05;;;19.30;93.40;;;;;;5069365;28;20052;-47
2022/08/11 00:32:27;;;;;;;7.32;3.53;;;19.20;93.60;;;;;;5065185;28;20475;-48
2022/08/11 00:34:54;;;;;;;3.97;2.90;;;19.20;93.80;;;;;;5052121;28;20095;-50
2022/08/11 00:37:21;;;;;;;7.55;3.25;;;19.20;93.60;;;;;;5085571;28;20048;-49
2022/08/11 00:39:50;;;;;;;4.30;3.47;;;19.20;93.70;;;;;;5074339;28;20078;-46
2022/08/11 00:42:21;;;;;;;7.55;4.13;;;19.20;93.80;;;;;;5067095;28;20045;-44
2022/08/11 00:44:52;;;;;;;;;;;19.20;94.50;;;;;;5063649;28;20056;-48
2022/08/11 00:47:27;;;;;;;5.50;3.73;;;19.00;93.70;;;;;;5072569;28;19942;-51
2022/08/11 00:50:01;;;;;;;7.00;2.83;;;19.00;94.40;;;;;;5072033;28;20784;-49
2022/08/11 00:52:48;;;;;;;5.00;3.25;;;19.00;94.30;;;;;;5061699;28;20507;-49
2022/08/11 00:55:41;;;;;;;7.70;3.95;;;19.00;94.20;;;;;;5054955;28;20088;-50
2022/08/11 00:58:29;;;;;;;3.95;3.05;;;19.00;94.50;;;;;;5054411;28;20053;-48
2022/08/11 01:01:07;;;;;;;3.50;2.67;;;19.00;94.30;;;;;;5062097;28;20149;-48
2022/08/11 01:03:48;;;;;;;4.00;2.95;;;18.90;94.10;;;;;;5075403;28;20091;-49
2022/08/11 01:06:28;;;;;;;4.40;3.08;;;18.90;94.10;;;;;;5062371;28;20088;-51
2022/08/11 01:09:12;;;;;;;4.03;2.63;;;18.90;94.10;;;;;;5064148;28;20041;-51
2022/08/11 01:12:09;;;;;;;5.13;3.53;;;18.90;93.90;;;;;;5066297;28;20143;-46
2022/08/11 01:15:15;;;;;;;8.40;4.20;;;18.90;94.10;;;;;;5069664;28;20078;-50
2022/08/11 01:18:25;;;;;;;8.30;4.40;;;18.80;94.40;;;;;;5071323;28;20052;-51
2022/08/11 01:21:16;;;;;;;6.40;4.13;;;18.80;95.10;;;;;;5011817;28;20053;-47
2022/08/11 01:24:19;;;;;;;5.93;3.25;;;18.70;94.90;;;;;;5066379;28;20052;-49
2022/08/11 01:27:09;;;;;;;3.78;2.80;;;18.70;94.80;;;;;;5071024;28;20128;-50
2022/08/11 01:30:24;;;;;;;5.15;4.57;;;18.70;94.50;;;;;;5073441;28;20123;-50
2022/08/11 01:33:23;;;;;;;7.22;5.00;;;18.60;95.30;;;;;;5063457;28;20044;-51
2022/08/11 01:36:24;;;;;;;6.78;4.07;;;18.60;95.40;;;;;;5066334;28;20131;-52
2022/08/11 01:39:20;;;;;;;7.50;3.90;;;18.60;95.70;;;;;;5062856;28;20055;-48
2022/08/11 01:45:09;;;;;;;5.43;2.95;;;18.50;95.00;;;;;;5050806;28;20071;-47
2022/08/11 01:47:51;;;;;;;6.47;3.60;;;18.40;95.00;;;;;;5071786;28;20139;-50
2022/08/11 01:50:40;;;;;;;5.97;3.20;;;18.40;95.00;;;;;;5059979;28;20080;-50
2022/08/11 01:53:21;;;;;;;3.95;3.33;;;18.40;95.00;;;;;;5072296;28;20056;-50
2022/08/11 01:55:56;;;;;;;5.78;4.22;;;18.50;94.80;;;;;;5064587;28;20052;-47
2022/08/11 01:58:27;;;;;;;4.70;3.60;;;18.40;95.20;;;;;;5068593;28;20102;-48
2022/08/11 02:00:58;;;;;;;3.55;3.25;;;18.40;95.30;;;;;;5072137;28;20235;-49
2022/08/11 02:03:27;;;;;;;6.40;3.88;;;18.40;95.10;;;;;;5064633;28;20466;-50
2022/08/11 02:06:00;;;;;;;6.30;4.00;;;18.30;95.20;;;;;;5064441;28;20473;-52
2022/08/11 02:08:37;;;;;;;6.90;3.75;;;18.30;95.20;;;;;;5072945;28;20048;-50
2022/08/11 02:13:56;;;;;;;8.88;4.47;;;18.30;95.40;;;;;;5070717;28;20499;-51
2022/08/11 02:16:29;;;;;;;5.60;4.53;;;18.20;95.90;;;;;;5064981;28;20059;-49
2022/08/11 02:24:42;;;;;;;4.43;4.03;;;18.00;96.20;;;;;;5072714;28;20049;-47
2022/08/11 02:27:14;;;;;;;4.60;3.88;;;18.10;96.00;;;;;;5070916;28;20048;-49
2022/08/11 02:29:45;;;;;;;6.60;4.57;;;18.00;95.90;;;;;;5068496;28;20072;-49
2022/08/11 02:35:09;;;;;;;5.18;4.05;;;18.00;95.20;;;;;;5059536;28;19924;-47
2022/08/11 02:37:43;;;;;;;7.28;4.90;;;18.00;95.90;;;;;;5071801;28;20139;-51
2022/08/11 02:40:20;;;;;;;7.95;4.53;;;18.00;96.10;;;;;;5071674;28;20050;-46
2022/08/11 02:42:55;;;;;;;8.32;5.10;;;18.00;96.00;;;;;;5067266;28;20055;-51
2022/08/11 02:45:32;;;;;;;6.18;3.80;;;17.90;96.30;;;;;;5069412;28;20060;-50
2022/08/11 02:50:50;;;;;;;5.25;4.13;;;17.90;95.60;;;;;;5072640;28;20041;-50
2022/08/11 02:53:20;;;;;;;5.03;4.30;;;17.90;95.60;;;;;;5071122;28;20093;-49
2022/08/11 02:55:53;;;;;;;6.13;5.05;;;17.80;95.70;;;;;;5072263;28;20483;-50
2022/08/11 02:58:26;;;;;;;9.15;4.60;;;17.80;95.80;;;;;;5072074;28;20048;-42
2022/08/11 03:00:55;;;;;;;8.43;4.95;;;17.80;95.90;;;;;;5070040;28;20376;-49
2022/08/11 03:03:25;;;;;;;7.05;4.40;;;17.80;96.10;;;;;;5072026;28;20099;-52
2022/08/11 03:05:59;;;;;;;10.32;4.18;;;17.80;95.90;;;;;;5065081;28;20041;-48
2022/08/11 03:08:50;;;;;;;7.93;4.72;;;17.80;95.70;;;;;;5064431;28;20041;-49
2022/08/11 03:16:58;;;;;;;6.13;4.95;;;17.60;95.50;;;;;;5067644;28;20480;-49
2022/08/11 03:19:28;;;;;;;7.22;4.05;;;17.70;96.00;;;;;;5070406;28;20135;-50
2022/08/11 03:22:08;;;;;;;6.65;4.90;;;17.60;95.80;;;;;;5071726;28;20048;-51
2022/08/11 03:24:45;;;;;;;6.10;5.22;;;17.60;95.70;;;;;;5071040;28;20057;-50
2022/08/11 03:27:23;;;;;;;6.75;5.22;;;17.60;96.00;;;;;;5070840;28;20049;-50
2022/08/11 03:30:02;;;;;;;4.30;3.90;;;17.50;96.00;;;;;;5070780;28;20079;-52
2022/08/11 03:32:30;;;;;;;6.53;4.05;;;17.50;95.60;;;;;;5062272;28;20432;-49
2022/08/11 03:34:56;;;;;;;7.00;5.50;;;17.50;95.50;;;;;;5065156;28;20052;-51
2022/08/11 03:37:51;;;;;;;7.43;4.70;;;17.50;95.90;;;;;;5068460;28;20056;-47
2022/08/11 03:43:34;;;;;;;11.95;4.78;;;17.40;95.70;;;;;;5056722;28;20045;-51
2022/08/11 03:46:03;;;;;;;6.65;5.47;;;17.40;95.80;;;;;;5071823;28;20103;-50
2022/08/11 03:48:40;;;;;;;7.93;5.05;;;17.30;95.90;;;;;;5071343;28;20178;-49
2022/08/11 03:51:12;;;;;;;7.35;5.72;;;17.30;96.00;;;;;;5058920;28;20403;-46
2022/08/11 03:53:47;;;;;;;10.38;5.63;;;17.30;96.20;;;;;;5065406;28;20072;-49
2022/08/11 03:56:59;;;;;;;6.00;4.88;;;17.30;96.00;;;;;;5070906;28;20515;-47
2022/08/11 03:59:52;;;;;;;7.43;4.50;;;17.30;95.70;;;;;;5068019;28;20040;-48
2022/08/11 04:02:38;;;;;;;6.55;5.13;;;17.30;96.00;;;;;;5053787;28;20053;-49
2022/08/11 04:05:39;;;;;;;8.18;5.95;;;17.20;95.90;;;;;;5072073;28;20072;-51
2022/08/11 04:08:20;;;;;;;8.30;5.68;;;17.20;95.90;;;;;;5061039;28;20484;-50
2022/08/11 04:11:21;;;;;;;8.73;6.05;;;17.10;96.00;;;;;;5054358;28;20048;-47
2022/08/11 04:17:31;;;;;;;;;;;17.10;95.80;;;;;;5065931;28;20048;-48
2022/08/11 04:20:18;;;;;;;6.65;5.57;;;17.00;95.30;;;;;;5065357;28;19978;-51
2022/08/11 04:22:54;;;;;;;6.57;5.80;;;17.00;95.80;;;;;;5074147;28;20509;-47
2022/08/11 04:25:36;;;;;;;8.13;5.60;;;17.00;96.20;;;;;;5076271;28;20135;-51
2022/08/11 04:28:27;;;;;;;8.52;5.13;;;17.00;96.30;;;;;;5073257;28;20139;-49
2022/08/11 04:31:10;;;;;;;7.47;5.35;;;17.00;95.90;;;;;;5069200;28;20480;-48
2022/08/11 04:34:14;;;;;;;9.50;6.85;;;16.90;96.10;;;;;;5065212;28;20124;-51
2022/08/11 04:39:48;;;;;;;12.10;6.78;;;16.90;96.50;;;;;;5073275;28;20049;-47
2022/08/11 04:45:38;;;;;;;11.80;7.28;;;16.90;96.80;;;;;;5063537;28;20381;-49
2022/08/11 05:03:31;;;;;;;11.23;8.85;;;16.80;97.90;;;;;;5071621;28;20071;-48
2022/08/11 05:06:29;;;;;;;9.57;7.68;;;16.80;97.80;;;;;;5055304;28;20081;-50
2022/08/11 05:09:23;;;;;;;18.15;11.70;;;16.90;98.00;;;;;;5048782;28;20045;-49
2022/08/11 05:12:13;;;;;;;9.73;8.13;;;16.90;99.20;;;;;;5072546;28;20056;-48
2022/08/11 05:37:05;;;;;;;15.85;12.13;;;17.00;99.90;;;;;;5070270;28;20488;-47
2022/08/11 05:56:19;;;;;;;16.77;11.82;;;17.60;99.90;;;;;;5069892;28;20059;-47
2022/08/11 05:58:49;;;;;;;16.38;10.80;;;17.70;99.90;;;;;;5071813;28;20067;-46
2022/08/11 06:01:21;;;;;;;15.63;11.55;;;17.80;99.90;;;;;;5068551;28;20102;-47
2022/08/11 06:06:34;;;;;;;17.42;11.23;;;18.00;99.90;;;;;;5061462;28;20156;-49
2022/08/11 06:09:01;;;;;;;14.77;11.27;;;18.10;99.90;;;;;;5063065;28;20131;-47
2022/08/11 06:11:28;;;;;;;13.25;10.93;;;18.20;99.90;;;;;;5061417;28;20130;-48
2022/08/11 06:13:56;;;;;;;14.55;11.10;;;18.30;99.90;;;;;;5064887;28;20044;-50
2022/08/11 06:16:26;;;;;;;15.18;10.48;;;18.60;99.90;;;;;;5063149;28;20567;-49
2022/08/11 06:18:53;;;;;;;14.95;11.02;;;18.60;99.90;;;;;;5071115;28;20143;-50
2022/08/11 06:21:20;;;;;;;11.20;9.68;;;18.70;99.90;;;;;;5072119;28;20053;-49
2022/08/11 06:23:47;;;;;;;15.05;9.85;;;18.80;99.90;;;;;;5073802;28;20135;-40
2022/08/11 06:26:14;;;;;;;13.98;9.45;;;18.90;99.90;;;;;;5071086;28;20052;-45
2022/08/11 06:28:43;;;;;;;13.32;9.07;;;19.00;99.90;;;;;;5063585;28;20082;-48
2022/08/11 06:31:16;;;;;;;11.10;9.20;;;19.20;99.90;;;;;;5052207;28;20458;-49
2022/08/11 06:33:53;;;;;;;12.93;8.45;;;19.30;99.90;;;;;;5070983;28;20084;-46
2022/08/11 06:36:23;;;;;;;13.88;7.93;;;19.50;99.90;;;;;;5071136;28;20407;-47
2022/08/11 06:39:07;;;;;;;9.67;8.20;;;19.60;99.90;;;;;;5071649;28;20103;-46
2022/08/11 06:41:37;;;;;;;14.05;8.15;;;19.80;99.60;;;;;;5063678;28;20049;-48
2022/08/11 06:44:15;;;;;;;8.98;7.10;;;19.90;99.30;;;;;;5063116;28;20048;-46
2022/08/11 06:46:43;;;;;;;12.07;7.07;;;20.00;99.10;;;;;;5070191;28;20449;-46
2022/08/11 06:51:53;;;;;;;8.73;6.32;;;20.40;98.90;;;;;;5063362;28;20052;-43
2022/08/11 06:54:20;;;;;;;6.47;5.88;;;20.50;98.40;;;;;;5066238;28;20143;-44
2022/08/11 07:02:21;;;;;;;12.82;5.78;;;21.00;97.50;;;;;;5066865;28;20052;-47
2022/08/11 07:04:49;;;;;;;19.88;5.70;;;21.20;97.20;;;;;;5062250;28;20098;-47
2022/08/11 07:16:26;;;;;;;7.30;4.05;;;21.80;96.00;;;;;;5008326;28;20042;-48
2022/08/11 07:29:52;;;;;;;8.18;3.38;;;22.60;93.60;;;;;;5081006;28;20135;-49
2022/08/11 07:32:23;;;;;;;6.07;2.97;;;22.80;93.50;;;;;;5056630;28;20051;-46
2022/08/11 07:34:55;;;;;;;9.70;2.93;;;23.00;93.10;;;;;;5057168;28;20052;-47
2022/08/11 07:37:23;;;;;;;3.83;2.33;;;23.20;92.90;;;;;;5059961;28;20734;-50
2022/08/11 07:39:49;;;;;;;11.43;2.70;;;23.40;92.80;;;;;;5066438;28;20123;-47
2022/08/11 07:42:26;;;;;;;4.28;2.28;;;23.60;92.00;;;;;;5065368;28;20091;-49
2022/08/11 07:53:07;;;;;;;6.53;2.08;;;24.20;89.70;;;;;;5075694;28;20084;-47
2022/08/11 07:55:34;;;;;;;5.13;1.90;;;24.30;88.30;;;;;;5075257;28;20136;-46
2022/08/11 08:19:58;;;;;;;2.83;1.48;;;26.00;82.50;;;;;;5074971;28;20057;-47
2022/08/11 08:22:26;;;;;;;6.15;1.30;;;26.10;81.30;;;;;;5075168;28;20128;-52
2022/08/11 08:24:54;;;;;;;7.95;1.60;;;26.30;80.60;;;;;;5075443;28;20458;-48
2022/08/11 08:27:20;;;;;;;7.57;1.80;;;26.40;80.10;;;;;;5074850;28;20060;-47
2022/08/11 08:32:33;;;;;;;5.10;1.73;;;26.70;78.30;;;;;;5075802;28;20056;-50
2022/08/11 08:35:01;;;;;;;5.10;1.63;;;26.80;76.40;;;;;;5074789;28;20048;-47
2022/08/11 08:37:29;;;;;;;5.40;1.50;;;26.90;74.60;;;;;;5073354;28;20056;-50
2022/08/11 08:39:57;;;;;;;4.18;1.50;;;27.00;74.30;;;;;;5074849;28;20060;-48
2022/08/11 08:42:25;;;;;;;8.35;1.50;;;27.10;74.30;;;;;;5060433;28;20057;-45
2022/08/11 08:44:54;;;;;;;2.60;1.55;;;27.30;73.80;;;;;;5055692;28;20131;-51
2022/08/11 08:47:22;;;;;;;4.72;1.55;;;27.50;72.00;;;;;;5063469;28;20131;-49
2022/08/11 08:49:49;;;;;;;7.75;1.90;;;27.60;70.20;;;;;;5075576;28;20045;-48
2022/08/11 08:52:19;;;;;;;5.45;1.30;;;27.60;69.30;;;;;;5075487;28;20553;-50
2022/08/11 08:54:49;;;;;;;5.72;1.40;;;27.80;70.60;;;;;;5075476;28;20539;-52
2022/08/11 08:57:16;;;;;;;9.43;1.63;;;28.00;70.70;;;;;;5074528;28;20060;-47
2022/08/11 08:59:45;;;;;;;3.70;1.20;;;28.20;69.70;;;;;;5073941;28;20139;-51
2022/08/11 09:02:12;;;;;;;2.92;1.45;;;28.30;68.10;;;;;;5075223;28;20147;-53
2022/08/11 09:04:39;;;;;;;6.43;1.35;;;28.40;67.10;;;;;;5074095;28;20052;-48
2022/08/11 09:07:08;;;;;;;4.00;1.25;;;28.50;66.70;;;;;;5074188;28;20060;-47
2022/08/11 09:09:35;;;;;;;6.15;1.40;;;28.60;65.90;;;;;;5073688;28;20044;-53
2022/08/11 09:12:04;;;;;;;6.82;1.35;;;28.80;63.40;;;;;;5073284;28;20048;-52
2022/08/11 09:17:14;;;;;;;4.20;1.10;;;29.00;62.00;;;;;;5074519;28;20408;-52
2022/08/11 09:19:41;;;;;;;9.10;1.90;;;29.10;60.70;;;;;;5075081;28;20127;-52
2022/08/11 09:27:38;;;;;;;4.13;1.73;;;29.50;59.90;;;;;;5074722;28;20496;-50
2022/08/11 09:30:06;;;;;;;9.32;1.70;;;29.60;58.50;;;;;;5073756;28;20107;-50
2022/08/11 09:32:33;;;;;;;6.00;2.00;;;29.70;58.30;;;;;;5073801;28;20091;-52
2022/08/11 09:34:59;;;;;;;5.28;1.90;;;29.90;57.70;;;;;;5073613;28;20102;-54
2022/08/11 09:40:29;;;;;;;5.82;1.80;;;30.00;57.30;;;;;;5073367;28;20298;-53
2022/08/11 09:45:45;;;;;;;3.20;1.60;;;30.20;56.70;;;;;;5054469;28;20431;-52
2022/08/11 09:48:11;;;;;;;4.93;1.70;;;30.40;56.00;;;;;;5054347;28;20492;-48
2022/08/11 09:50:39;;;;;;;4.78;1.38;;;30.50;55.50;;;;;;5053182;28;20127;-54
2022/08/11 09:53:05;;;;;;;5.13;1.65;;;30.60;55.00;;;;;;5053544;28;20469;-53
2022/08/11 09:55:32;;;;;;;4.32;1.67;;;30.70;55.10;;;;;;5054256;28;20072;-53
2022/08/11 09:58:17;;;;;;;6.32;1.40;;;30.90;54.80;;;;;;5057270;28;20083;-51
2022/08/11 10:00:45;;;;;;;6.22;1.73;;;31.10;54.70;;;;;;5072209;28;20052;-55
2022/08/11 10:03:13;;;;;;;7.07;1.73;;;31.20;53.90;;;;;;5073332;28;20139;-52
2022/08/11 10:08:27;;;;;;;5.85;1.95;;;31.40;52.70;;;;;;5073377;28;20408;-49
2022/08/11 10:10:55;;;;;;;2.70;1.63;;;31.40;51.70;;;;;;5073393;28;20053;-52
2022/08/11 10:13:25;;;;;;;6.10;1.45;;;31.50;51.60;;;;;;5071653;28;20063;-54
2022/08/11 10:15:52;;;;;;;4.32;1.35;;;31.50;52.70;;;;;;5074124;28;20084;-53
2022/08/11 10:21:09;;;;;;;3.05;1.60;;;31.70;50.90;;;;;;5072676;28;20052;-55
2022/08/11 10:34:32;;;;;;;4.70;1.60;;;31.90;50.10;;;;;;5072956;28;20109;-54
2022/08/11 10:37:01;;;;;;;5.28;1.70;;;31.90;50.10;;;;;;5070631;28;20045;-54
2022/08/11 10:39:28;;;;;;;3.13;1.50;;;31.90;49.50;;;;;;5072091;28;20090;-53
2022/08/11 10:44:42;;;;;;;3.30;1.50;;;32.10;49.30;;;;;;5067931;28;20048;-51
2022/08/11 11:00:55;;;;;;;2.28;1.50;;;32.60;47.90;;;;;;5071655;28;20075;-49
2022/08/11 11:03:22;;;;;;;3.45;1.40;;;32.70;48.20;;;;;;5057400;28;20044;-56
2022/08/11 11:05:49;;;;;;;4.30;1.70;;;32.80;48.00;;;;;;5071607;28;20067;-55
2022/08/11 11:10:57;;;;;;;;;;;33.00;47.60;;;;;;5066493;28;20055;-56
2022/08/11 11:19:05;;;;;;;1.70;1.20;;;33.40;47.90;;;;;;5071149;28;20135;-51
2022/08/11 11:21:31;;;;;;;3.05;1.55;;;33.40;46.70;;;;;;5070968;28;20041;-53
2022/08/11 11:24:04;;;;;;;4.82;1.70;;;33.50;46.90;;;;;;5072740;28;20453;-57
2022/08/11 11:26:38;;;;;;;3.45;1.25;;;33.70;46.20;;;;;;5071313;28;20105;-50
2022/08/11 11:29:29;;;;;;;3.60;1.38;;;33.70;46.70;;;;;;5052878;28;20345;-55
2022/08/11 11:32:06;;;;;;;5.32;1.40;;;33.90;47.60;;;;;;5052672;28;20135;-54
2022/08/11 11:34:50;;;;;;;7.15;1.63;;;34.00;46.20;;;;;;5051896;28;20044;-56
2022/08/11 11:37:17;;;;;;;3.72;1.50;;;33.90;46.00;;;;;;5051206;28;20090;-56
2022/08/11 11:39:43;;;;;;;5.15;1.20;;;33.90;45.70;;;;;;5061214;28;20132;-56
2022/08/11 11:42:10;;;;;;;4.78;1.30;;;33.90;45.40;;;;;;5063445;28;20072;-53
2022/08/11 11:44:37;;;;;;;4.30;1.40;;;34.00;46.70;;;;;;5071454;28;20060;-53
2022/08/11 11:47:05;;;;;;;3.40;1.52;;;34.00;45.40;;;;;;5071739;28;20124;-54
2022/08/11 11:49:34;;;;;;;2.72;1.20;;;34.00;45.00;;;;;;5072419;28;20095;-53
2022/08/11 11:52:00;;;;;;;3.05;1.42;;;34.00;45.70;;;;;;5071223;28;20044;-49
2022/08/11 11:54:28;;;;;;;2.03;1.13;;;34.10;44.60;;;;;;5072423;28;20140;-59
2022/08/11 11:56:56;;;;;;;3.55;1.40;;;34.10;44.50;;;;;;5072464;28;20052;-55
2022/08/11 12:02:11;;;;;;;6.00;1.30;;;34.10;43.80;;;;;;5070876;28;20120;-54
2022/08/11 12:04:37;;;;;;;2.80;1.42;;;34.20;44.80;;;;;;5070425;28;20048;-55
2022/08/11 12:09:48;;;;;;;5.55;1.70;;;34.60;45.60;;;;;;5070718;28;20068;-55
2022/08/11 12:14:59;;;;;;;2.10;1.30;;;34.60;44.40;;;;;;5070686;28;20457;-55
2022/08/11 12:17:27;;;;;;;5.35;1.67;;;34.60;45.00;;;;;;5071437;28;20123;-55
2022/08/11 12:19:54;;;;;;;4.78;1.50;;;34.70;43.20;;;;;;5071102;28;20091;-56
2022/08/11 12:27:51;;;;;;;5.75;1.48;;;34.60;43.80;;;;;;5058387;28;20145;-55
2022/08/11 12:30:18;;;;;;;7.95;1.65;;;34.50;43.20;;;;;;5072224;28;20056;-55
2022/08/11 12:32:46;;;;;;;13.32;1.40;;;34.40;43.00;;;;;;5070849;28;20053;-52
2022/08/11 12:35:14;;;;;;;3.45;1.40;;;34.50;44.20;;;;;;5075321;28;20450;-56
2022/08/11 12:37:44;;;;;;;8.57;1.45;;;34.60;43.10;;;;;;5073992;28;20404;-53
2022/08/11 12:45:41;;;;;;;2.00;1.20;;;34.80;43.80;;;;;;5071859;28;20494;-54
2022/08/11 12:53:52;;;;;;;4.00;1.30;;;35.10;44.30;;;;;;5074554;28;20083;-55
2022/08/11 13:07:18;;;;;;;7.65;1.58;;;35.60;43.00;;;;;;5073444;28;20052;-56
2022/08/11 13:09:45;;;;;;;6.63;1.35;;;35.70;41.70;;;;;;5069365;28;20041;-51
2022/08/11 13:14:57;;;;;;;2.45;1.17;;;35.50;41.50;;;;;;5069552;28;20049;-56
2022/08/11 13:17:25;;;;;;;3.20;1.20;;;35.40;42.20;;;;;;5058017;28;20044;-56
2022/08/11 13:19:53;;;;;;;2.55;1.17;;;35.50;40.90;;;;;;5072738;28;20060;-54
2022/08/11 13:22:21;;;;;;;2.47;1.35;;;35.40;42.30;;;;;;5064130;28;20084;-56
2022/08/11 13:24:48;;;;;;;3.60;1.45;;;35.40;41.50;;;;;;5064759;28;20052;-53
2022/08/11 13:27:16;;;;;;;2.90;1.50;;;35.40;41.20;;;;;;5074858;28;20048;-53
2022/08/11 13:29:45;;;;;;;4.65;1.77;;;35.30;40.70;;;;;;5061320;28;20057;-55
2022/08/11 13:32:12;;;;;;;4.72;1.15;;;35.40;41.00;;;;;;5067347;28;20568;-56
2022/08/11 13:34:41;;;;;;;4.80;1.40;;;35.50;40.60;;;;;;5064368;28;20056;-52
2022/08/11 13:37:10;;;;;;;3.65;1.38;;;35.60;41.40;;;;;;5053646;28;20499;-54
2022/08/11 13:39:38;;;;;;;4.13;1.30;;;35.70;42.90;;;;;;5054469;28;20128;-56
2022/08/11 13:42:05;;;;;;;5.65;1.30;;;35.80;41.20;;;;;;5067060;28;20121;-55
2022/08/11 13:44:34;;;;;;;5.75;1.40;;;35.80;42.20;;;;;;5072519;28;20044;-53
2022/08/11 13:47:02;;;;;;;3.42;1.42;;;35.80;41.30;;;;;;5072503;28;20044;-45
2022/08/11 13:49:30;;;;;;;2.40;1.13;;;35.80;41.10;;;;;;5073264;28;20088;-55
2022/08/11 13:51:56;;;;;;;5.68;1.30;;;35.90;41.00;;;;;;5071781;28;20460;-55
2022/08/11 13:54:26;;;;;;;5.78;1.27;;;36.00;41.20;;;;;;5073804;28;20052;-54
2022/08/11 13:56:54;;;;;;;3.22;1.30;;;36.10;40.60;;;;;;5073078;28;20053;-54
2022/08/11 13:59:21;;;;;;;4.85;1.40;;;36.10;40.30;;;;;;5071175;28;20052;-54
2022/08/11 14:01:49;;;;;;;4.95;1.42;;;36.10;39.90;;;;;;5073132;28;20048;-51
2022/08/11 14:04:20;;;;;;;3.85;1.25;;;36.10;39.80;;;;;;5072477;28;20091;-54
2022/08/11 14:06:50;;;;;;;3.42;1.30;;;36.00;40.40;;;;;;5074087;28;20518;-55
2022/08/11 14:09:18;;;;;;;;;;;36.00;40.80;;;;;;5069721;28;20040;-56
2022/08/11 14:14:34;;;;;;;5.82;1.25;;;35.90;41.50;;;;;;5066556;28;20128;-50
2022/08/11 14:17:01;;;;;;;;;;;36.00;41.00;;;;;;5070097;28;20061;-53
2022/08/11 14:19:28;;;;;;;3.35;1.50;;;36.00;40.10;;;;;;5058220;28;19925;-54
2022/08/11 14:22:06;;;;;;;2.40;1.30;;;35.90;40.50;;;;;;5060735;28;20101;-52
2022/08/11 14:24:34;;;;;;;4.78;1.42;;;35.90;41.60;;;;;;5072425;28;20444;-53
2022/08/11 14:27:02;;;;;;;4.50;1.67;;;36.00;42.10;;;;;;5068528;28;20110;-55
2022/08/11 14:29:31;;;;;;;6.50;1.20;;;36.00;40.60;;;;;;5064194;28;20098;-51
2022/08/11 14:32:00;;;;;;;4.63;1.58;;;35.90;41.00;;;;;;5059376;28;20152;-51
2022/08/11 14:34:29;;;;;;;3.97;1.40;;;35.80;40.00;;;;;;5057860;28;20088;-51
2022/08/11 14:36:56;;;;;;;4.10;1.40;;;35.80;40.70;;;;;;5070911;28;20059;-54
2022/08/11 14:39:24;;;;;;;7.57;1.42;;;35.90;40.20;;;;;;5070567;28;20040;-56
2022/08/11 14:47:27;;;;;;;6.80;1.25;;;36.00;41.40;;;;;;5069383;28;20098;-54
2022/08/11 14:49:55;;;;;;;3.42;1.20;;;36.10;41.10;;;;;;5067337;28;20071;-49
2022/08/11 14:52:22;;;;;;;3.65;1.30;;;36.20;40.10;;;;;;5072012;28;20060;-56
2022/08/11 14:57:38;;;;;;;5.18;1.35;;;35.90;40.30;;;;;;5067436;28;20047;-54
2022/08/11 15:00:08;;;;;;;2.05;1.60;;;35.90;40.50;;;;;;5069388;28;20550;-55
2022/08/11 15:05:20;;;;;;;4.72;1.38;;;35.80;40.10;;;;;;5072567;28;20060;-51
2022/08/11 15:07:46;;;;;;;1.77;1.08;;;35.80;40.40;;;;;;5068765;28;20048;-54
2022/08/11 15:10:13;;;;;;;3.55;1.50;;;35.80;39.60;;;;;;5065125;28;20045;-54
2022/08/11 15:12:43;;;;;;;5.65;1.10;;;35.70;39.40;;;;;;5059266;28;20143;-54
2022/08/11 15:17:57;;;;;;;3.20;1.30;;;35.70;40.90;;;;;;5054357;28;20048;-55
2022/08/11 15:25:59;;;;;;;4.95;1.38;;;35.80;41.30;;;;;;5071031;28;20530;-53
2022/08/11 15:39:28;;;;;;;5.25;1.10;;;35.90;39.50;;;;;;5058267;28;20052;-55
2022/08/11 15:47:29;;;;;;;3.80;1.20;;;35.60;40.10;;;;;;5072292;28;20053;-51
2022/08/11 15:49:56;;;;;;;3.90;1.33;;;35.60;41.30;;;;;;5070824;28;20076;-52
2022/08/11 15:52:23;;;;;;;3.13;1.20;;;35.70;40.80;;;;;;5072354;28;20461;-52
2022/08/11 15:54:50;;;;;;;2.30;1.23;;;35.80;41.00;;;;;;5067999;28;20115;-55
2022/08/11 16:05:27;;;;;;;1.80;1.10;;;35.30;41.40;;;;;;5065014;28;20080;-53
2022/08/11 16:07:54;;;;;;;3.97;1.30;;;35.30;42.40;;;;;;5052952;28;20570;-51
2022/08/11 16:10:21;;;;;;;5.40;1.40;;;35.30;41.00;;;;;;5073521;28;20472;-55
2022/08/11 16:16:13;;;;;;;4.72;1.52;;;35.10;41.80;;;;;;5061150;28;20489;-51
2022/08/11 16:18:46;;;;;;;6.80;1.25;;;34.80;42.70;;;;;;5041145;28;20193;-46
2022/08/11 16:21:14;;;;;;;6.18;1.42;;;34.70;42.10;;;;;;5057492;28;20049;-55
2022/08/11 16:23:43;;;;;;;7.18;1.20;;;34.60;41.70;;;;;;5069153;28;20094;-53
2022/08/11 16:26:10;;;;;;;2.65;1.13;;;34.50;42.90;;;;;;5073727;28;20102;-53
2022/08/11 16:28:36;;;;;;;2.28;1.00;;;34.40;42.40;;;;;;5075961;28;20092;-52
2022/08/11 16:31:04;;;;;;;5.03;1.00;;;34.30;43.60;;;;;;5075318;28;20462;-52
2022/08/11 16:33:31;;;;;;;3.75;1.55;;;34.20;44.40;;;;;;5071929;28;20498;-54
2022/08/11 16:38:43;;;;;;;6.75;1.30;;;34.00;44.60;;;;;;5072233;28;20076;-57
2022/08/11 16:41:11;;;;;;;3.95;1.50;;;33.70;44.20;;;;;;5073311;28;20057;-52
2022/08/11 16:49:15;;;;;;;3.47;1.40;;;32.90;45.50;;;;;;5074908;28;20065;-51
2022/08/11 16:51:43;;;;;;;4.00;1.20;;;32.90;46.10;;;;;;5073937;28;20561;-50
2022/08/11 16:54:10;;;;;;;4.93;1.55;;;32.80;46.10;;;;;;5070375;28;20080;-52
2022/08/11 16:56:38;;;;;;;3.55;1.25;;;32.50;45.10;;;;;;5054887;28;20061;-49
2022/08/11 16:59:13;;;;;;;7.30;1.23;;;32.30;45.60;;;;;;5070048;28;20489;-51
2022/08/11 17:01:41;;;;;;;1.63;1.15;;;32.10;46.10;;;;;;5075379;28;20088;-39
2022/08/11 17:17:56;;;;;;;5.43;1.30;;;31.80;46.90;;;;;;5066339;28;20044;-53
2022/08/11 17:20:23;;;;;;;3.20;1.38;;;31.80;47.00;;;;;;5060562;28;20127;-53
2022/08/11 17:25:36;;;;;;;4.85;1.55;;;31.70;48.00;;;;;;5054740;28;20052;-52
2022/08/11 17:28:03;;;;;;;6.60;1.70;;;31.50;48.40;;;;;;5070799;28;20052;-52
2022/08/11 17:35:54;;;;;;;3.10;1.30;;;31.00;49.70;;;;;;5074716;28;20052;-48
2022/08/11 17:38:22;;;;;;;5.63;1.75;;;31.00;49.70;;;;;;5073628;28;20108;-48
2022/08/11 17:49:01;;;;;;;5.97;1.30;;;30.50;51.20;;;;;;5074428;28;20051;-50
2022/08/11 17:59:55;;;;;;;4.90;1.35;;;30.20;51.50;;;;;;5060980;28;20076;-47
2022/08/11 18:05:10;;;;;;;4.20;1.52;;;29.90;52.40;;;;;;5060987;28;20053;-53
